createdAt,value
2022-08-29T00:00:42.117Z,2.42
2022-08-29T00:11:06.847Z,2.20
2022-08-29T00:21:28.363Z,2.58
2022-08-29T00:31:50.006Z,2.35
2022-08-29T00:42:11.653Z,2.35
2022-08-29T00:52:46.951Z,2.45
2022-08-29T01:03:08.807Z,2.38
2022-08-29T01:13:37.133Z,2.53
2022-08-29T01:24:15.365Z,2.38
2022-08-29T01:34:36.956Z,2.45
2022-08-29T01:45:00.570Z,1.85
2022-08-29T01:55:24.495Z,2.70
2022-08-29T02:05:47.784Z,2.40
2022-08-29T02:16:10.185Z,2.50
2022-08-29T02:26:31.804Z,2.42
2022-08-29T02:36:53.366Z,2.53
2022-08-29T02:47:15.029Z,2.15
2022-08-29T02:57:36.535Z,2.30
2022-08-29T03:07:59.064Z,2.28
2022-08-29T03:18:20.684Z,2.65
2022-08-29T03:28:45.430Z,2.97
2022-08-29T03:39:07.088Z,2.63
2022-08-29T03:49:28.910Z,2.70
2022-08-29T03:59:54.108Z,2.50
2022-08-29T04:10:23.037Z,2.78
2022-08-29T04:20:44.978Z,2.95
2022-08-29T04:31:12.824Z,3.00
2022-08-29T04:41:35.342Z,2.65
2022-08-29T04:51:56.924Z,2.72
2022-08-29T05:02:18.556Z,3.05
2022-08-29T05:12:40.921Z,3.28
2022-08-29T05:23:02.457Z,3.47
2022-08-29T05:33:24.042Z,3.08
2022-08-29T05:43:45.702Z,3.35
2022-08-29T05:54:07.688Z,3.65
2022-08-29T06:04:29.484Z,3.40
2022-08-29T06:14:51.310Z,3.65
2022-08-29T06:25:37.348Z,3.58
2022-08-29T06:35:55.691Z,3.10
2022-08-29T06:46:35.764Z,3.45
2022-08-29T06:56:58.322Z,3.10
2022-08-29T07:07:19.861Z,3.80
2022-08-29T07:17:42.038Z,3.58
2022-08-29T07:28:05.014Z,3.72
2022-08-29T07:38:28.461Z,3.88
2022-08-29T07:48:51.132Z,3.78
2022-08-29T07:59:13.543Z,3.80
2022-08-29T08:09:35.060Z,3.20
2022-08-29T08:19:56.577Z,2.63
2022-08-29T08:30:18.499Z,5.85
2022-08-29T08:41:04.486Z,1.80
2022-08-29T08:51:30.863Z,1.60
2022-08-29T09:02:07.678Z,1.42
2022-08-29T09:13:07.254Z,1.50
2022-08-29T09:23:49.401Z,1.60
2022-08-29T09:34:13.381Z,1.63
2022-08-29T09:44:35.964Z,1.65
2022-08-29T09:54:57.773Z,1.77
2022-08-29T10:05:35.377Z,1.58
2022-08-29T10:16:29.557Z,1.77
2022-08-29T10:27:05.061Z,0.95
2022-08-29T10:37:32.008Z,1.15
2022-08-29T10:48:10.023Z,0.98
2022-08-29T10:58:56.957Z,1.13
2022-08-29T11:09:33.135Z,0.98
2022-08-29T11:20:15.847Z,0.90
2022-08-29T11:31:02.365Z,1.08
2022-08-29T11:41:32.924Z,1.10
2022-08-29T11:51:58.511Z,1.00
2022-08-29T12:02:43.606Z,1.10
2022-08-29T12:13:08.605Z,1.10
2022-08-29T12:23:36.413Z,1.20
2022-08-29T12:34:02.930Z,1.35
2022-08-29T12:44:47.536Z,1.15
2022-08-29T12:55:32.645Z,0.90
2022-08-29T13:06:04.305Z,1.50
2022-08-29T13:16:30.037Z,1.08
2022-08-29T13:27:04.745Z,1.30
2022-08-29T13:37:37.297Z,1.20
2022-08-29T13:48:03.046Z,0.90
2022-08-29T13:58:26.788Z,1.02
2022-08-29T14:08:49.043Z,1.10
2022-08-29T14:19:10.695Z,1.15
2022-08-29T14:29:33.996Z,1.17
2022-08-29T14:39:55.655Z,1.10
2022-08-29T14:50:19.904Z,1.15
2022-08-29T15:00:42.199Z,1.00
2022-08-29T15:11:03.722Z,1.00
2022-08-29T15:21:26.223Z,0.90
2022-08-29T15:31:47.811Z,0.65
2022-08-29T15:42:11.845Z,0.68
2022-08-29T15:52:38.799Z,0.60
2022-08-29T16:03:02.811Z,0.40
2022-08-29T16:13:24.678Z,0.50
2022-08-29T16:23:47.533Z,0.57
2022-08-29T16:34:09.024Z,0.85
2022-08-29T16:44:31.798Z,0.50
2022-08-29T16:54:53.801Z,0.70
2022-08-29T17:05:15.978Z,0.90
2022-08-29T17:15:37.866Z,1.40
2022-08-29T17:26:00.611Z,1.05
2022-08-29T17:36:22.468Z,1.33
2022-08-29T17:46:45.449Z,1.50
2022-08-29T17:57:07.279Z,1.10
2022-08-29T18:07:29.718Z,1.88
2022-08-29T18:17:52.879Z,1.30
2022-08-29T18:28:14.625Z,1.38
2022-08-29T18:38:37.519Z,1.15
2022-08-29T18:48:59.229Z,1.23
2022-08-29T18:59:20.744Z,0.90
2022-08-29T19:09:43.500Z,1.40
2022-08-29T19:20:27.699Z,1.63
2022-08-29T19:30:49.964Z,1.33
2022-08-29T19:41:12.749Z,1.27
2022-08-29T19:51:34.404Z,1.50
2022-08-29T20:01:58.437Z,1.65
2022-08-29T20:12:20.072Z,1.60
2022-08-29T20:22:42.115Z,1.30
2022-08-29T20:33:04.707Z,1.80
2022-08-29T20:43:28.576Z,1.58
2022-08-29T20:53:50.090Z,1.60
2022-08-29T21:04:31.398Z,1.50
2022-08-29T21:14:53.165Z,1.35
2022-08-29T21:25:15.191Z,1.60
2022-08-29T21:35:40.420Z,1.60
2022-08-29T21:46:01.977Z,1.25
2022-08-29T21:56:25.371Z,1.42
2022-08-29T22:06:47.196Z,1.25
2022-08-29T22:17:15.755Z,1.45
2022-08-29T22:27:37.459Z,1.50
2022-08-29T22:37:59.175Z,1.40
2022-08-29T22:48:20.728Z,1.25
2022-08-29T22:58:42.257Z,1.60
2022-08-29T23:09:04.694Z,2.00
2022-08-29T23:19:26.590Z,1.27
2022-08-29T23:29:51.651Z,1.63
2022-08-29T23:40:13.254Z,1.50
2022-08-29T23:50:34.816Z,1.30
